Alta Loma, California
Current Conditions -  °F | °C
As of 5:53 AM on Monday 24 Nov 2014 (Local Time) from KONT Reporting Station
Scattered Clouds Scattered Clouds  
Wind Chill: 48°   Ceiling: Unl
Heat Index: 48°   Visibility: 10mi
Dew Point: 22°   Wind: 0mph
Humidity: 36%   Direction: NA
Pressure: 30.17"   Gusts: NA
Location:  34.12°N, 117.6°W
Report Text: KONT 241353Z 00000KT 10SM SCT250 09/M06 A3017 RMK AO2 SLP212 T00891056
Loading
Personal Weather Stations






























Interactive Weather Map New forecast layout! Learn more

10-Day Weather Forecast

Advertisements
Track Severe Weather on mobile